createdAt,value
2022-10-25T00:01:50.974Z,1.15
2022-10-25T00:06:48.729Z,1.80
2022-10-25T00:09:15.844Z,0.93
2022-10-25T00:11:43.396Z,1.30
2022-10-25T00:14:09.977Z,1.33
2022-10-25T00:16:38.181Z,2.00
2022-10-25T00:19:05.498Z,1.10
2022-10-25T00:21:32.073Z,1.45
2022-10-25T00:23:58.575Z,1.33
2022-10-25T00:26:25.085Z,1.80
2022-10-25T00:28:54.897Z,1.13
2022-10-25T00:31:23.097Z,1.30
2022-10-25T00:33:51.773Z,1.30
2022-10-25T00:36:24.172Z,1.40
2022-10-25T00:38:56.621Z,1.42
2022-10-25T00:41:27.797Z,1.95
2022-10-25T00:43:57.081Z,1.33
2022-10-25T00:46:29.070Z,1.25
2022-10-25T00:49:04.005Z,1.48
2022-10-25T00:51:39.018Z,1.17
2022-10-25T00:54:10.407Z,1.52
2022-10-25T00:56:40.603Z,1.60
2022-10-25T00:59:10.609Z,1.38
2022-10-25T01:01:38.763Z,1.08
2022-10-25T01:04:11.781Z,1.88
2022-10-25T01:06:46.603Z,1.00
2022-10-25T01:09:17.337Z,1.50
2022-10-25T01:11:44.044Z,1.30
2022-10-25T01:14:13.274Z,1.33
2022-10-25T01:16:55.859Z,1.23
2022-10-25T01:20:00.169Z,1.33
2022-10-25T01:22:40.181Z,1.10
2022-10-25T01:25:44.349Z,1.48
2022-10-25T01:28:16.907Z,1.27
2022-10-25T01:30:55.637Z,0.90
2022-10-25T01:33:31.956Z,1.05
2022-10-25T01:36:06.609Z,1.80
2022-10-25T01:38:39.147Z,1.40
2022-10-25T01:41:30.420Z,0.90
2022-10-25T01:47:17.489Z,1.20
2022-10-25T01:50:00.749Z,1.40
2022-10-25T01:52:27.655Z,1.38
2022-10-25T01:54:57.184Z,0.93
2022-10-25T01:57:38.663Z,1.25
2022-10-25T02:00:10.456Z,1.00
2022-10-25T02:02:51.581Z,1.58
2022-10-25T02:05:33.152Z,1.08
2022-10-25T02:08:06.467Z,1.35
2022-10-25T02:10:41.921Z,1.40
2022-10-25T02:13:43.689Z,1.83
2022-10-25T02:16:19.371Z,1.35
2022-10-25T02:18:51.382Z,1.35
2022-10-25T02:21:19.476Z,1.20
2022-10-25T02:23:49.111Z,0.98
2022-10-25T02:26:17.533Z,1.00
2022-10-25T02:28:46.002Z,1.20
2022-10-25T02:31:16.841Z,0.93
2022-10-25T02:33:45.611Z,1.10
2022-10-25T02:36:23.727Z,1.00
2022-10-25T02:38:52.739Z,1.02
2022-10-25T02:41:21.303Z,1.20
2022-10-25T02:43:48.288Z,1.77
2022-10-25T02:46:18.363Z,1.10
2022-10-25T02:48:45.288Z,1.15
2022-10-25T02:51:12.878Z,0.90
2022-10-25T02:53:40.001Z,0.88
2022-10-25T02:56:08.105Z,1.15
2022-10-25T02:58:38.221Z,1.00
2022-10-25T03:01:06.383Z,1.40
2022-10-25T03:03:33.906Z,1.10
2022-10-25T03:06:00.906Z,1.00
2022-10-25T03:08:29.881Z,1.17
2022-10-25T03:10:56.424Z,1.58
2022-10-25T03:13:23.406Z,1.10
2022-10-25T03:15:50.077Z,1.50
2022-10-25T03:18:17.554Z,0.90
2022-10-25T03:20:44.865Z,1.20
2022-10-25T03:23:11.857Z,1.08
2022-10-25T03:25:38.459Z,1.10
2022-10-25T03:28:05.078Z,1.10
2022-10-25T03:30:32.058Z,1.35
2022-10-25T03:33:00.927Z,1.38
2022-10-25T03:35:27.512Z,0.98
2022-10-25T03:37:54.926Z,0.95
2022-10-25T03:40:21.818Z,1.40
2022-10-25T03:42:48.453Z,0.70
2022-10-25T03:45:14.967Z,1.27
2022-10-25T03:47:41.489Z,0.98
2022-10-25T03:50:08.281Z,0.88
2022-10-25T03:52:35.364Z,1.00
2022-10-25T03:55:05.264Z,1.77
2022-10-25T03:57:34.943Z,1.45
2022-10-25T04:00:04.922Z,1.35
2022-10-25T04:02:32.750Z,1.00
2022-10-25T04:04:59.260Z,0.95
2022-10-25T04:07:25.808Z,1.02
2022-10-25T04:09:52.326Z,0.93
2022-10-25T04:12:18.828Z,0.70
2022-10-25T04:14:45.346Z,1.35
2022-10-25T04:17:11.880Z,1.17
2022-10-25T04:19:38.422Z,1.20
2022-10-25T04:22:05.278Z,1.25
2022-10-25T04:24:33.096Z,1.00
2022-10-25T04:26:59.649Z,0.90
2022-10-25T04:29:26.174Z,1.10
2022-10-25T04:31:52.750Z,1.20
2022-10-25T04:34:19.295Z,1.00
2022-10-25T04:36:45.834Z,0.95
2022-10-25T04:39:12.397Z,1.00
2022-10-25T04:41:38.955Z,0.90
2022-10-25T04:44:07.993Z,0.85
2022-10-25T04:46:37.452Z,1.00
2022-10-25T04:49:04.979Z,1.33
2022-10-25T04:51:31.502Z,1.13
2022-10-25T04:53:57.994Z,1.40
2022-10-25T04:56:24.588Z,0.98
2022-10-25T04:58:51.131Z,1.55
2022-10-25T05:01:18.686Z,1.52
2022-10-25T05:03:45.505Z,1.25
2022-10-25T05:06:18.039Z,1.33
2022-10-25T05:08:47.131Z,1.38
2022-10-25T05:11:15.322Z,1.15
2022-10-25T05:13:45.388Z,1.13
2022-10-25T05:16:20.506Z,1.30
2022-10-25T05:18:47.465Z,1.10
2022-10-25T05:21:15.448Z,1.00
2022-10-25T05:23:42.640Z,1.20
2022-10-25T05:26:11.926Z,1.23
2022-10-25T05:28:40.576Z,1.35
2022-10-25T05:31:14.491Z,0.88
2022-10-25T05:33:42.093Z,2.63
2022-10-25T05:36:08.648Z,1.13
2022-10-25T05:38:37.836Z,1.48
2022-10-25T05:41:05.670Z,1.20
2022-10-25T05:43:32.273Z,1.45
2022-10-25T05:46:11.376Z,0.88
2022-10-25T05:48:38.885Z,1.00
2022-10-25T05:51:32.519Z,1.40
2022-10-25T05:54:10.599Z,1.30
2022-10-25T05:56:38.123Z,1.27
2022-10-25T05:59:12.778Z,1.55
2022-10-25T06:01:41.924Z,1.83
2022-10-25T06:04:09.473Z,1.25
2022-10-25T06:06:37.814Z,1.65
2022-10-25T06:09:07.929Z,1.00
2022-10-25T06:11:36.598Z,1.02
2022-10-25T06:14:03.437Z,1.58
2022-10-25T06:16:30.008Z,1.20
2022-10-25T06:18:56.893Z,1.20
2022-10-25T06:21:26.728Z,1.20
2022-10-25T06:23:54.117Z,1.85
2022-10-25T06:26:25.395Z,1.63
2022-10-25T06:28:53.462Z,1.42
2022-10-25T06:31:20.642Z,1.13
2022-10-25T06:33:47.632Z,1.23
2022-10-25T06:36:19.637Z,1.42
2022-10-25T06:38:47.322Z,1.30
2022-10-25T06:41:19.502Z,1.25
2022-10-25T06:43:46.384Z,1.40
2022-10-25T06:46:24.593Z,1.10
2022-10-25T06:48:53.754Z,1.27
2022-10-25T06:51:21.680Z,1.20
2022-10-25T06:53:53.872Z,1.00
2022-10-25T06:56:20.724Z,1.40
2022-10-25T06:58:47.310Z,0.90
2022-10-25T07:01:18.676Z,1.70
2022-10-25T07:03:46.299Z,1.20
2022-10-25T07:06:27.575Z,1.25
2022-10-25T07:08:57.103Z,1.42
2022-10-25T07:11:25.358Z,1.00
2022-10-25T07:13:52.506Z,1.20
2022-10-25T07:16:21.030Z,1.10
2022-10-25T07:18:48.902Z,1.70
2022-10-25T07:21:21.675Z,1.13
2022-10-25T07:23:50.310Z,1.42
2022-10-25T07:26:20.065Z,1.60
2022-10-25T07:28:48.192Z,1.30
2022-10-25T07:31:17.281Z,1.00
2022-10-25T07:33:43.876Z,1.70
2022-10-25T07:36:11.598Z,1.42
2022-10-25T07:38:39.240Z,1.63
2022-10-25T07:41:05.803Z,1.50
2022-10-25T07:43:32.370Z,1.42
2022-10-25T07:45:58.965Z,1.40
2022-10-25T07:48:25.517Z,1.77
2022-10-25T07:50:52.051Z,1.30
2022-10-25T07:53:18.967Z,1.67
2022-10-25T07:55:53.003Z,1.52
2022-10-25T07:58:19.910Z,1.50
2022-10-25T08:00:47.162Z,1.30
2022-10-25T08:03:15.376Z,1.40
2022-10-25T08:05:44.517Z,1.30
2022-10-25T08:08:11.718Z,1.30
2022-10-25T08:10:38.526Z,1.20
2022-10-25T08:13:08.063Z,1.38
2022-10-25T08:15:37.885Z,1.55
2022-10-25T08:18:09.750Z,1.33
2022-10-25T08:21:00.650Z,1.17
2022-10-25T08:23:25.340Z,1.33
2022-10-25T08:25:51.966Z,1.00
2022-10-25T08:28:18.549Z,1.30
2022-10-25T08:30:45.066Z,1.08
2022-10-25T08:33:12.113Z,0.73
2022-10-25T08:35:39.100Z,1.10
2022-10-25T08:38:08.363Z,1.05
2022-10-25T08:40:43.541Z,1.08
2022-10-25T08:43:28.311Z,1.00
2022-10-25T08:46:00.252Z,1.00
2022-10-25T08:48:32.958Z,1.00
2022-10-25T08:51:25.898Z,1.13
2022-10-25T08:53:57.009Z,1.20
2022-10-25T08:56:25.840Z,1.33
2022-10-25T08:58:58.276Z,1.17
2022-10-25T09:01:51.780Z,1.20
2022-10-25T09:04:18.563Z,1.33
2022-10-25T09:06:53.843Z,1.38
2022-10-25T09:09:55.329Z,2.58
2022-10-25T09:12:30.309Z,1.77
2022-10-25T09:15:11.520Z,4.25
2022-10-25T09:17:51.480Z,4.10
2022-10-25T09:20:23.822Z,3.63
2022-10-25T09:23:16.495Z,4.75
2022-10-25T09:26:06.151Z,4.50
2022-10-25T09:29:17.887Z,3.80
2022-10-25T09:31:50.078Z,3.67
2022-10-25T09:34:21.598Z,3.92
2022-10-25T09:37:19.688Z,3.60
2022-10-25T09:39:51.700Z,4.05
2022-10-25T09:42:33.039Z,4.50
2022-10-25T09:45:17.336Z,3.85
2022-10-25T09:47:52.402Z,4.13
2022-10-25T09:50:29.889Z,4.93
2022-10-25T09:53:14.918Z,4.13
2022-10-25T09:55:49.634Z,5.15
2022-10-25T09:58:40.545Z,4.10
2022-10-25T10:01:17.599Z,3.67
2022-10-25T10:03:47.068Z,3.70
2022-10-25T10:06:26.403Z,3.75
2022-10-25T10:09:12.706Z,4.00
2022-10-25T10:11:40.379Z,3.65
2022-10-25T10:14:50.252Z,4.10
2022-10-25T10:17:19.915Z,3.65
2022-10-25T10:20:12.076Z,3.55
2022-10-25T10:22:46.260Z,3.63
2022-10-25T10:25:22.625Z,4.03
2022-10-25T10:27:52.326Z,3.50
2022-10-25T10:30:24.016Z,3.53
2022-10-25T10:32:57.370Z,3.85
2022-10-25T10:35:36.161Z,3.60
2022-10-25T10:38:28.338Z,3.88
2022-10-25T10:41:14.827Z,3.47
2022-10-25T10:43:41.851Z,3.70
2022-10-25T10:46:15.116Z,4.03
2022-10-25T10:48:44.497Z,3.60
2022-10-25T10:51:39.023Z,3.95
2022-10-25T10:54:23.599Z,3.45
2022-10-25T10:57:00.859Z,3.03
2022-10-25T10:59:52.274Z,3.35
2022-10-25T11:02:40.131Z,3.50
2022-10-25T11:05:22.115Z,3.45
2022-10-25T11:08:16.158Z,3.10
2022-10-25T11:10:42.824Z,2.90
2022-10-25T11:13:11.307Z,3.38
2022-10-25T11:16:01.052Z,3.53
2022-10-25T11:18:42.357Z,3.60
2022-10-25T11:21:21.904Z,3.83
2022-10-25T11:24:00.790Z,3.25
2022-10-25T11:26:54.851Z,3.55
2022-10-25T11:29:40.154Z,3.90
2022-10-25T11:32:33.657Z,3.78
2022-10-25T11:35:18.214Z,3.30
2022-10-25T11:38:05.006Z,4.00
2022-10-25T11:40:54.671Z,3.75
2022-10-25T11:43:23.997Z,3.50
2022-10-25T11:45:59.309Z,3.30
2022-10-25T11:48:42.696Z,3.47
2022-10-25T11:51:19.202Z,3.70
2022-10-25T11:54:20.957Z,3.35
2022-10-25T11:57:12.899Z,3.55
2022-10-25T12:00:02.817Z,3.35
2022-10-25T12:03:06.745Z,2.97
2022-10-25T12:05:52.712Z,3.38
2022-10-25T12:09:01.837Z,5.53
2022-10-25T12:11:32.609Z,4.03
2022-10-25T12:14:07.372Z,3.70
2022-10-25T12:16:37.324Z,3.83
2022-10-25T12:19:16.730Z,3.50
2022-10-25T12:22:06.433Z,3.22
2022-10-25T12:24:41.791Z,3.72
2022-10-25T12:27:13.428Z,3.35
2022-10-25T12:30:05.622Z,3.47
2022-10-25T12:33:14.416Z,3.47
2022-10-25T12:35:51.073Z,4.18
2022-10-25T12:38:35.826Z,3.30
2022-10-25T12:41:14.224Z,3.50
2022-10-25T12:44:00.025Z,3.70
2022-10-25T12:46:54.610Z,3.40
2022-10-25T12:49:44.357Z,3.47
2022-10-25T12:52:28.352Z,3.53
2022-10-25T12:55:36.623Z,3.63
2022-10-25T12:58:46.519Z,3.70
2022-10-25T13:01:13.085Z,4.00
2022-10-25T13:04:04.222Z,4.00
2022-10-25T13:06:41.253Z,3.80
2022-10-25T13:09:11.656Z,4.00
2022-10-25T13:11:47.708Z,3.78
2022-10-25T13:14:20.800Z,3.85
2022-10-25T13:16:47.356Z,3.80
2022-10-25T13:19:18.716Z,3.30
2022-10-25T13:21:54.254Z,3.05
2022-10-25T13:24:43.281Z,3.15
2022-10-25T13:27:13.581Z,3.17
2022-10-25T13:29:58.982Z,3.30
2022-10-25T13:32:25.855Z,3.47
2022-10-25T13:34:52.536Z,3.40
2022-10-25T13:37:43.802Z,3.00
2022-10-25T13:40:28.227Z,3.40
2022-10-25T13:43:18.745Z,3.22
2022-10-25T13:45:55.204Z,3.90
2022-10-25T13:48:34.895Z,3.20
2022-10-25T13:51:13.217Z,2.80
2022-10-25T13:53:49.307Z,3.08
2022-10-25T13:56:32.142Z,3.20
2022-10-25T13:59:02.415Z,3.05
2022-10-25T14:01:31.276Z,3.15
2022-10-25T14:04:36.243Z,2.90
2022-10-25T14:07:44.395Z,3.40
2022-10-25T14:10:23.157Z,3.40
2022-10-25T14:12:53.551Z,3.60
2022-10-25T14:15:46.150Z,3.42
2022-10-25T14:18:21.979Z,3.55
2022-10-25T14:20:56.287Z,2.90
2022-10-25T14:23:27.459Z,3.15
2022-10-25T14:25:58.978Z,3.33
2022-10-25T14:28:28.629Z,3.40
2022-10-25T14:30:56.854Z,3.22
2022-10-25T14:33:41.862Z,3.40
2022-10-25T14:36:36.005Z,3.38
2022-10-25T14:39:15.176Z,3.08
2022-10-25T14:41:59.175Z,3.10
2022-10-25T14:44:47.221Z,3.42
2022-10-25T14:47:31.134Z,3.22
2022-10-25T14:49:59.184Z,3.17
2022-10-25T14:52:27.589Z,3.33
2022-10-25T14:55:02.744Z,3.30
2022-10-25T14:57:30.559Z,3.25
2022-10-25T15:00:01.816Z,3.20
2022-10-25T15:02:41.389Z,3.22
2022-10-25T15:05:18.704Z,3.30
2022-10-25T15:07:47.168Z,3.10
2022-10-25T15:10:40.175Z,3.20
2022-10-25T15:13:28.618Z,3.72
2022-10-25T15:15:56.471Z,3.22
2022-10-25T15:18:34.625Z,2.90
2022-10-25T15:21:21.519Z,3.33
2022-10-25T15:24:12.422Z,3.30
2022-10-25T15:26:41.330Z,3.10
2022-10-25T15:29:07.908Z,2.85
2022-10-25T15:31:34.466Z,3.10
2022-10-25T15:34:05.631Z,3.33
2022-10-25T15:36:33.805Z,3.20
2022-10-25T15:39:10.375Z,3.50
2022-10-25T15:41:40.418Z,3.47
2022-10-25T15:44:07.328Z,3.22
2022-10-25T15:46:34.992Z,3.60
2022-10-25T15:49:04.901Z,3.30
2022-10-25T15:51:34.271Z,3.30
2022-10-25T15:54:00.813Z,3.28
2022-10-25T15:56:27.401Z,3.80
2022-10-25T15:58:53.912Z,3.83
2022-10-25T16:01:21.516Z,3.92
2022-10-25T16:03:48.195Z,3.92
2022-10-25T16:06:15.097Z,3.85
2022-10-25T16:08:42.320Z,4.00
2022-10-25T16:11:15.642Z,3.95
2022-10-25T16:13:44.710Z,4.07
2022-10-25T16:16:39.408Z,4.00
2022-10-25T16:19:15.164Z,3.78
2022-10-25T16:21:44.583Z,4.00
2022-10-25T16:24:14.202Z,3.90
2022-10-25T16:26:47.273Z,3.55
2022-10-25T16:29:24.976Z,3.92
2022-10-25T16:31:52.744Z,4.05
2022-10-25T16:34:19.918Z,3.80
2022-10-25T16:36:48.132Z,3.63
2022-10-25T16:39:15.130Z,3.70
2022-10-25T16:41:46.198Z,3.70
2022-10-25T16:44:15.567Z,3.58
2022-10-25T16:46:42.158Z,3.53
2022-10-25T16:49:11.297Z,3.53
2022-10-25T16:51:42.135Z,3.58
2022-10-25T16:54:15.591Z,3.65
2022-10-25T16:56:42.495Z,3.63
2022-10-25T16:59:10.921Z,3.60
2022-10-25T17:01:38.960Z,3.45
2022-10-25T17:04:07.887Z,3.60
2022-10-25T17:06:42.585Z,3.50
2022-10-25T17:09:11.729Z,3.63
2022-10-25T17:11:40.596Z,3.45
2022-10-25T17:14:10.645Z,3.45
2022-10-25T17:16:46.283Z,3.30
2022-10-25T17:19:13.074Z,3.40
2022-10-25T17:21:41.760Z,3.47
2022-10-25T17:24:12.126Z,3.40
2022-10-25T17:26:40.324Z,3.30
2022-10-25T17:29:06.871Z,3.70
2022-10-25T17:31:33.486Z,2.92
2022-10-25T17:34:01.181Z,3.47
2022-10-25T17:36:29.233Z,3.10
2022-10-25T17:38:55.739Z,3.83
2022-10-25T17:41:22.220Z,3.67
2022-10-25T17:43:50.930Z,3.70
2022-10-25T17:46:23.779Z,3.30
2022-10-25T17:48:54.823Z,3.70
2022-10-25T17:51:21.616Z,3.95
2022-10-25T17:53:56.535Z,3.30
2022-10-25T17:56:25.608Z,3.60
2022-10-25T17:58:52.738Z,3.85
2022-10-25T18:01:22.440Z,3.10
2022-10-25T18:03:50.002Z,3.50
2022-10-25T18:06:19.199Z,3.42
2022-10-25T18:08:51.093Z,3.60
2022-10-25T18:11:19.484Z,3.55
2022-10-25T18:13:46.382Z,3.40
2022-10-25T18:16:17.225Z,3.85
2022-10-25T18:18:46.790Z,3.60
2022-10-25T18:21:15.679Z,3.25
2022-10-25T18:23:45.888Z,3.83
2022-10-25T18:26:17.338Z,2.85
2022-10-25T18:28:47.051Z,3.17
2022-10-25T18:31:16.415Z,3.75
2022-10-25T18:33:50.110Z,3.30
2022-10-25T18:36:19.435Z,3.50
2022-10-25T18:38:47.187Z,3.05
2022-10-25T18:41:28.548Z,3.53
2022-10-25T18:43:56.440Z,3.50
2022-10-25T18:46:23.982Z,3.03
2022-10-25T18:48:52.383Z,3.25
2022-10-25T18:51:20.555Z,3.60
2022-10-25T18:53:47.213Z,3.28
2022-10-25T18:56:19.654Z,3.20
2022-10-25T18:58:48.642Z,3.25
2022-10-25T19:01:24.493Z,3.38
2022-10-25T19:03:51.682Z,3.33
2022-10-25T19:06:21.191Z,3.65
2022-10-25T19:08:49.299Z,3.25
2022-10-25T19:11:18.482Z,4.00
2022-10-25T19:13:51.420Z,4.10
2022-10-25T19:16:18.242Z,3.75
2022-10-25T19:18:45.075Z,3.25
2022-10-25T19:21:18.668Z,3.58
2022-10-25T19:23:46.463Z,3.20
2022-10-25T19:26:21.306Z,3.35
2022-10-25T19:28:54.438Z,3.00
2022-10-25T19:31:20.990Z,3.65
2022-10-25T19:33:49.422Z,3.55
2022-10-25T19:36:20.471Z,3.03
2022-10-25T19:38:50.162Z,3.10
2022-10-25T19:41:19.469Z,3.40
2022-10-25T19:43:46.864Z,3.90
2022-10-25T19:46:16.529Z,3.75
2022-10-25T19:48:46.179Z,4.75
2022-10-25T19:51:15.616Z,5.90
2022-10-25T19:53:44.648Z,5.22
2022-10-25T19:56:20.738Z,5.00
2022-10-25T19:58:48.288Z,4.85
2022-10-25T20:01:23.975Z,4.53
2022-10-25T20:03:52.716Z,3.90
2022-10-25T20:06:24.665Z,3.60
2022-10-25T20:08:52.935Z,4.50
2022-10-25T20:11:20.219Z,3.75
2022-10-25T20:13:46.852Z,3.53
2022-10-25T20:16:16.279Z,4.20
2022-10-25T20:18:45.232Z,4.00
2022-10-25T20:21:19.188Z,3.90
2022-10-25T20:23:50.811Z,3.53
2022-10-25T20:26:19.791Z,3.90
2022-10-25T20:28:47.142Z,4.00
2022-10-25T20:31:19.808Z,3.70
2022-10-25T20:33:49.976Z,3.95
2022-10-25T20:36:19.605Z,3.75
2022-10-25T20:38:49.292Z,3.80
2022-10-25T20:41:25.296Z,4.25
2022-10-25T20:43:54.501Z,4.15
2022-10-25T20:46:22.620Z,3.70
2022-10-25T20:48:49.452Z,3.60
2022-10-25T20:51:19.423Z,3.42
2022-10-25T20:53:49.604Z,3.60
2022-10-25T20:56:21.152Z,3.85
2022-10-25T20:58:48.114Z,4.25
2022-10-25T21:01:17.467Z,3.83
2022-10-25T21:03:44.255Z,3.80
2022-10-25T21:06:12.341Z,3.72
2022-10-25T21:08:39.401Z,3.78
2022-10-25T21:11:09.361Z,4.05
2022-10-25T21:13:37.146Z,3.97
2022-10-25T21:16:07.245Z,3.83
2022-10-25T21:18:33.901Z,3.50
2022-10-25T21:21:02.797Z,3.38
2022-10-25T21:23:29.479Z,4.25
2022-10-25T21:26:04.728Z,3.40
2022-10-25T21:28:33.655Z,3.50
2022-10-25T21:31:05.326Z,3.80
2022-10-25T21:33:31.872Z,3.40
2022-10-25T21:36:13.336Z,3.83
2022-10-25T21:38:40.476Z,3.80
2022-10-25T21:41:09.437Z,3.72
2022-10-25T21:43:37.842Z,3.58
2022-10-25T21:46:05.847Z,3.63
2022-10-25T21:48:33.798Z,4.22
2022-10-25T21:51:00.520Z,2.10
2022-10-25T21:53:27.439Z,2.65
2022-10-25T21:56:14.654Z,1.65
2022-10-25T21:58:42.912Z,2.30
2022-10-25T22:01:12.389Z,1.45
2022-10-25T22:03:40.116Z,3.08
2022-10-25T22:06:08.306Z,4.53
2022-10-25T22:08:35.123Z,4.28
2022-10-25T22:11:07.317Z,1.63
2022-10-25T22:13:34.398Z,1.80
2022-10-25T22:16:07.551Z,1.60
2022-10-25T22:18:34.425Z,2.33
2022-10-25T22:21:06.611Z,1.80
2022-10-25T22:23:33.694Z,2.03
2022-10-25T22:26:05.355Z,1.83
2022-10-25T22:28:34.349Z,2.38
2022-10-25T22:31:23.317Z,2.67
2022-10-25T22:34:09.202Z,1.85
2022-10-25T22:36:38.161Z,2.22
2022-10-25T22:39:06.097Z,2.45
2022-10-25T22:41:32.757Z,2.45
2022-10-25T22:43:59.693Z,2.35
2022-10-25T22:46:31.793Z,2.75
2022-10-25T22:49:00.220Z,3.13
2022-10-25T22:51:28.061Z,5.70
2022-10-25T22:53:55.272Z,3.60
2022-10-25T22:56:26.193Z,2.42
2022-10-25T22:58:57.511Z,4.95
2022-10-25T23:01:26.710Z,3.22
2022-10-25T23:03:57.614Z,4.88
2022-10-25T23:06:27.245Z,4.60
2022-10-25T23:08:55.722Z,4.32
2022-10-25T23:11:28.171Z,4.93
2022-10-25T23:13:54.923Z,3.28
2022-10-25T23:16:21.573Z,4.75
2022-10-25T23:18:48.181Z,2.28
2022-10-25T23:21:20.300Z,1.98
2022-10-25T23:23:47.238Z,2.40
2022-10-25T23:26:19.133Z,3.38
2022-10-25T23:28:45.846Z,2.60
2022-10-25T23:31:13.435Z,3.38
2022-10-25T23:33:41.669Z,1.95
2022-10-25T23:36:12.312Z,2.10
2022-10-25T23:38:38.859Z,2.75
2022-10-25T23:41:05.908Z,2.25
2022-10-25T23:43:32.812Z,3.92
2022-10-25T23:45:59.485Z,6.53
2022-10-25T23:48:26.149Z,2.78
2022-10-25T23:51:04.620Z,1.92
2022-10-25T23:53:31.460Z,2.50
2022-10-25T23:55:58.903Z,2.20
2022-10-25T23:58:28.736Z,1.90
